Time;durP1;ratioP1;P1;durP2;ratioP2;P2;SDS_P1;SDS_P2;PMS_P1;PMS_P2;Temp;Humidity;BMP_temperature;BMP_pressure;BME280_temperature;BME280_humidity;BME280_pressure;Samples;Min_cycle;Max_cycle;Signal;HPM_P1;HPM_P2
2023/08/11 00:00:21;;;;;;;4.10;2.13;;;;;;;13.13;64.81;100671.84;31097698;28;97690;-70
2023/08/11 00:15:22;;;;;;;5.10;2.33;;;;;;;12.82;65.52;100676.16;31096401;28;98443;-69
2023/08/11 00:30:24;;;;;;;4.68;2.28;;;;;;;12.69;66.34;100684.72;31095849;28;97188;-70
2023/08/11 00:45:24;;;;;;;5.20;2.10;;;;;;;12.56;66.74;100691.59;31093975;28;96878;-70
2023/08/11 01:00:25;;;;;;;7.65;2.50;;;;;;;12.48;67.82;100690.63;31093672;28;96936;-70
2023/08/11 01:15:31;;;;;;;9.32;3.60;;;;;;;12.46;67.96;100681.94;31090927;28;97401;-70
2023/08/11 01:30:34;;;;;;;4.17;2.47;;;;;;;12.36;68.75;100682.13;31089924;28;97130;-70
2023/08/11 01:45:34;;;;;;;5.03;2.60;;;;;;;12.34;68.82;100672.63;31087915;28;97014;-70
2023/08/11 02:00:35;;;;;;;7.43;3.38;;;;;;;12.12;69.29;100680.31;31087156;28;111339;-70
2023/08/11 02:15:35;;;;;;;6.32;3.00;;;;;;;11.94;70.08;100683.16;31086223;28;97056;-70
2023/08/11 02:30:35;;;;;;;7.68;2.75;;;;;;;11.77;70.07;100684.97;31084507;28;111307;-70
2023/08/11 02:45:35;;;;;;;7.80;3.78;;;;;;;11.69;70.48;100687.66;31081225;28;113916;-70
2023/08/11 03:00:36;;;;;;;5.75;2.90;;;;;;;11.60;71.00;100692.13;31081880;28;99044;-70
2023/08/11 03:15:37;;;;;;;6.53;3.20;;;;;;;11.48;71.40;100694.28;31080226;28;97139;-70
2023/08/11 03:30:37;;;;;;;14.50;3.65;;;;;;;11.30;72.06;100696.22;31079117;28;96722;-70
2023/08/11 03:45:38;;;;;;;14.70;4.63;;;;;;;11.20;71.85;100693.72;31093183;28;96939;-70
2023/08/11 04:00:39;;;;;;;9.73;3.53;;;;;;;11.23;72.53;100697.88;31095352;28;105055;-73
2023/08/11 04:15:39;;;;;;;8.77;3.80;;;;;;;11.39;72.39;100711.28;31091587;28;97324;-79
2023/08/11 04:30:39;;;;;;;8.13;3.00;;;;;;;11.65;72.84;100716.50;31091096;28;100130;-81
2023/08/11 04:45:40;;;;;;;4.97;2.80;;;;;;;12.29;72.88;100726.56;31091653;28;96794;-80
2023/08/11 05:00:40;;;;;;;10.98;2.75;;;;;;;13.11;71.90;100738.91;31088438;28;96741;-80
2023/08/11 05:15:40;;;;;;;4.95;2.75;;;;;;;14.27;70.85;100738.19;31087494;28;96786;-81
2023/08/11 05:30:41;;;;;;;4.18;2.40;;;;;;;14.49;69.02;100745.34;31086770;28;97240;-79
2023/08/11 05:45:41;;;;;;;6.00;2.47;;;;;;;15.02;68.31;100742.63;31080898;28;97245;-79
2023/08/11 06:00:41;;;;;;;4.70;2.35;;;;;;;15.52;66.69;100736.63;31083959;28;97173;-79
2023/08/11 06:15:42;;;;;;;6.25;2.20;;;;;;;16.57;65.32;100737.00;31125665;28;97758;-76
2023/08/11 06:30:42;;;;;;;5.07;2.05;;;;;;;17.48;62.79;100746.81;31078950;28;104295;-77
2023/08/11 06:45:44;;;;;;;4.20;1.90;;;;;;;18.54;60.47;100766.03;31077889;28;102474;-74
2023/08/11 07:00:45;;;;;;;5.83;2.27;;;;;;;19.66;56.78;100763.19;31075853;28;97695;-76
2023/08/11 07:15:45;;;;;;;9.35;2.67;;;;;;;21.44;53.16;100762.03;31085406;28;97625;-78
2023/08/11 07:30:46;;;;;;;7.07;1.70;;;;;;;23.55;47.13;100758.91;31099195;28;97025;-75
2023/08/11 07:45:46;;;;;;;;;;;;;;;25.54;41.58;100785.88;31099388;28;97313;-76
2023/08/11 08:00:47;;;;;;;3.73;1.57;;;;;;;26.04;38.31;100777.66;31096809;28;98786;-75
2023/08/11 08:15:48;;;;;;;5.30;1.77;;;;;;;25.58;37.25;100775.31;31095215;28;96813;-84
2023/08/11 08:31:37;;;;;;;5.03;1.60;;;;;;;26.31;35.76;100781.19;31067699;28;96767;-73
2023/08/11 08:46:38;;;;;;;3.50;1.88;;;;;;;27.48;33.65;100781.31;31062654;28;101095;-73
2023/08/11 09:01:39;;;;;;;9.27;2.23;;;;;;;28.16;32.25;100780.34;31058921;28;98957;-74
2023/08/11 09:16:40;;;;;;;12.30;1.95;;;;;;;29.26;31.32;100775.19;31058345;28;97419;-72
2023/08/11 09:31:41;;;;;;;3.83;1.60;;;;;;;31.54;28.86;100774.75;31036902;28;97284;-71
2023/08/11 09:46:42;;;;;;;2.83;1.60;;;;;;;33.75;25.34;100775.38;30974457;28;98600;-73
2023/08/11 10:01:44;;;;;;;3.65;1.52;;;;;;;33.53;24.64;100779.72;30970918;28;98523;-71
2023/08/11 10:16:46;;;;;;;2.97;1.50;;;;;;;34.47;24.13;100775.53;30969027;28;97441;-71
2023/08/11 10:31:58;;;;;;;5.77;2.13;;;;;;;34.71;23.63;100764.09;30966910;28;97307;-70
2023/08/11 10:46:59;;;;;;;8.27;1.80;;;;;;;34.79;23.46;100765.22;30964525;28;96757;-70
2023/08/11 11:02:00;;;;;;;3.90;1.60;;;;;;;35.73;22.17;100765.75;30963794;28;97348;-68
2023/08/11 11:17:01;;;;;;;3.70;1.87;;;;;;;35.26;21.66;100760.00;30962126;28;97097;-73
2023/08/11 11:32:06;;;;;;;3.75;1.60;;;;;;;34.77;21.18;100762.78;30960707;28;97116;-71
2023/08/11 11:47:07;;;;;;;2.77;1.70;;;;;;;32.83;22.78;100754.13;30960962;28;97323;-74
2023/08/11 12:02:07;;;;;;;2.55;1.58;;;;;;;35.13;21.71;100741.56;30957401;28;97439;-71
2023/08/11 12:17:08;;;;;;;3.40;1.77;;;;;;;33.67;22.86;100762.31;30955911;28;97462;-69
2023/08/11 12:32:08;;;;;;;3.40;1.70;;;;;;;34.18;22.65;100757.47;30955455;28;96899;-73
2023/08/11 12:47:08;;;;;;;4.70;2.25;;;;;;;33.84;22.79;100775.44;30954429;28;109966;-83
2023/08/11 13:02:09;;;;;;;6.45;2.13;;;;;;;32.04;25.01;100782.53;30952116;28;97928;-75
2023/08/11 13:17:10;;;;;;;7.77;2.60;;;;;;;32.09;24.80;100763.19;30970929;28;107431;-72
2023/08/11 13:32:10;;;;;;;4.53;1.97;;;;;;;32.85;24.76;100764.88;30971824;28;97089;-75
2023/08/11 13:47:13;;;;;;;3.85;1.80;;;;;;;29.88;26.70;100752.88;30971533;28;97107;-76
2023/08/11 14:02:13;;;;;;;3.30;1.77;;;;;;;30.94;26.63;100751.31;30969863;28;97415;-74
2023/08/11 14:17:14;;;;;;;4.45;1.63;;;;;;;30.24;26.91;100749.84;30967292;28;102608;-69
2023/08/11 14:32:14;;;;;;;3.83;1.60;;;;;;;29.72;27.85;100738.44;30957313;28;98498;-70
2023/08/11 14:47:15;;;;;;;3.20;1.60;;;;;;;28.76;29.61;100724.91;30906688;28;97262;-71
2023/08/11 15:02:15;;;;;;;2.40;1.27;;;;;;;28.53;30.01;100727.16;30834500;28;98051;-71
2023/08/11 15:17:16;;;;;;;4.05;1.92;;;;;;;27.80;30.65;100726.38;30881458;28;102740;-73
2023/08/11 15:32:16;;;;;;;6.60;1.80;;;;;;;27.16;32.01;100724.81;30914758;28;97539;-68
2023/08/11 15:47:16;;;;;;;4.18;1.55;;;;;;;26.61;32.65;100725.09;30955726;28;97365;-69
2023/08/11 16:02:16;;;;;;;2.83;1.60;;;;;;;26.14;33.57;100720.44;30957515;28;113491;-69
2023/08/11 16:17:17;;;;;;;3.28;1.80;;;;;;;25.94;34.31;100719.13;30958590;28;113298;-69
2023/08/11 16:32:17;;;;;;;4.63;1.70;;;;;;;25.63;35.18;100716.16;30955365;28;109885;-69
2023/08/11 16:47:18;;;;;;;3.80;1.90;;;;;;;25.38;35.67;100719.44;30967828;28;97569;-69
2023/08/11 17:02:18;;;;;;;5.28;2.10;;;;;;;24.99;36.08;100717.59;30974652;28;97483;-69
2023/08/11 17:17:18;;;;;;;3.95;2.47;;;;;;;24.58;37.45;100711.59;30973515;28;97426;-69
2023/08/11 17:32:19;;;;;;;4.70;2.22;;;;;;;24.19;38.08;100721.63;30975148;28;96741;-69
2023/08/11 17:47:19;;;;;;;3.40;2.30;;;;;;;23.73;39.07;100717.06;30973936;28;108048;-69
2023/08/11 18:02:19;;;;;;;4.60;2.10;;;;;;;23.27;39.97;100729.78;30971845;28;96887;-69
2023/08/11 18:17:20;;;;;;;9.20;2.65;;;;;;;22.71;41.17;100741.09;30969643;28;97289;-70
2023/08/11 18:32:20;;;;;;;;;;;;;;;22.18;43.85;100756.41;30968536;28;97386;-69
2023/08/11 18:47:21;;;;;;;7.10;3.10;;;;;;;21.64;45.94;100761.81;30967822;28;97307;-68
2023/08/11 19:02:22;;;;;;;11.17;3.80;;;;;;;21.17;47.97;100767.78;30964598;28;98048;-71
2023/08/11 19:17:22;;;;;;;14.88;5.13;;;;;;;20.72;49.90;100781.59;30937381;28;97642;-70
2023/08/11 19:32:22;;;;;;;11.90;3.87;;;;;;;20.29;51.74;100794.84;30954315;28;112593;-69
2023/08/11 19:47:23;;;;;;;16.70;6.40;;;;;;;19.92;53.37;100797.38;30955342;28;105515;-69
2023/08/11 20:02:23;;;;;;;11.10;5.90;;;;;;;19.54;54.58;100792.78;30953893;28;96736;-69
2023/08/11 20:17:23;;;;;;;13.75;5.80;;;;;;;19.21;56.13;100777.53;30950459;28;97406;-69
2023/08/11 20:32:24;;;;;;;12.95;5.45;;;;;;;18.93;57.33;100770.56;30951296;28;110274;-71
2023/08/11 20:47:24;;;;;;;9.88;6.07;;;;;;;18.56;58.53;100770.19;30950987;28;108548;-71
2023/08/11 21:02:24;;;;;;;16.45;5.97;;;;;;;18.26;59.74;100765.19;30949228;28;106656;-72
2023/08/11 21:17:24;;;;;;;15.32;6.80;;;;;;;18.00;60.63;100776.81;30921081;28;107382;-70
2023/08/11 21:32:25;;;;;;;14.60;6.97;;;;;;;17.72;61.57;100779.59;30835821;28;109855;-70
2023/08/11 21:47:25;;;;;;;12.98;6.43;;;;;;;17.50;62.17;100778.91;30889776;28;97596;-72
2023/08/11 22:02:26;;;;;;;17.92;6.70;;;;;;;17.28;63.00;100773.66;30967382;28;97532;-73
2023/08/11 22:17:26;;;;;;;11.68;5.93;;;;;;;17.05;63.92;100752.41;30876771;28;97146;-72
2023/08/11 22:32:26;;;;;;;10.45;6.15;;;;;;;16.74;64.50;100764.41;30839925;28;97061;-72
2023/08/11 22:47:27;;;;;;;10.90;6.72;;;;;;;16.50;65.15;100765.69;30839757;28;97569;-74
2023/08/11 23:02:27;;;;;;;15.02;6.55;;;;;;;16.30;65.56;100768.22;30837865;28;97351;-72
2023/08/11 23:17:32;;;;;;;10.90;7.68;;;;;;;16.07;66.71;100780.00;30840740;28;106856;-75
2023/08/11 23:32:32;;;;;;;12.77;7.57;;;;;;;15.88;67.13;100771.56;30843108;28;97059;-75
2023/08/11 23:47:34;;;;;;;10.35;7.30;;;;;;;15.76;67.76;100783.81;30841803;28;97160;-72
